KSPA/SPA METAR and TAF weather

Enter ICAO airport designator
Station Type Date Time Source
KSPA METAR 2020/02/16 20:15 UTC NOAA

KSPA 162015Z AUTO 17003KT 10SM OVC048 07/01 A3013 RMK AO2


Station Type Date Time Source
KSPA Decoded METAR 2020/02/16 20:15 UTC NOAA

Spartanburg Memorial, SC, United States (KSPA) 34-55N 081-57W
Feb 16, 2020 - 03:15 PM EST / 2020.02.16 2015 UTC
Wind: from the S (170 degrees) at 3 MPH (3 KT):0
Visibility: 10 mile(s):0
Sky conditions: overcast
Temperature: 44 F (7 C)
Dew Point: 33 F (1 C)
Relative Humidity: 65%
Pressure (altimeter): 30.13 in. Hg (1020 hPa)
ob: KSPA 162015Z AUTO 17003KT 10SM OVC048 07/01 A3013 RMK AO2
cycle: 20

Station Type Date Time Source
KSPA TAF UTC NOAA

Error!

Example: see airport list